Time;durP1;ratioP1;P1;durP2;ratioP2;P2;SDS_P1;SDS_P2;PMS_P1;PMS_P2;Temp;Humidity;BMP_temperature;BMP_pressure;BME280_temperature;BME280_humidity;BME280_pressure;Samples;Min_cycle;Max_cycle;Signal;HPM_P1;HPM_P2
2020/12/27 00:02:05;;;;;;;2.47;1.30;;;;;;;11.30;48.90;100566.91;4979056;28;127939;-58
2020/12/27 00:04:31;;;;;;;2.28;1.30;;;;;;;11.31;48.47;100569.31;4962148;28;97755;-57
2020/12/27 00:07:04;;;;;;;3.10;1.50;;;;;;;11.31;48.66;100563.13;4979527;28;128720;-57
2020/12/27 00:09:30;;;;;;;2.88;1.38;;;;;;;11.30;49.00;100543.41;4960775;28;98950;-58
2020/12/27 00:11:56;;;;;;;1.88;1.20;;;;;;;11.31;48.67;100541.53;4980313;28;97998;-58
2020/12/27 00:14:22;;;;;;;2.85;1.27;;;;;;;11.30;48.96;100537.22;4979609;28;122464;-58
2020/12/27 00:16:48;;;;;;;2.13;1.58;;;;;;;11.29;49.04;100527.50;4980280;28;98388;-58
2020/12/27 00:19:14;;;;;;;2.42;1.30;;;;;;;11.28;48.99;100520.50;4980108;28;99019;-57
2020/12/27 00:21:40;;;;;;;2.47;1.38;;;;;;;11.27;48.89;100519.66;4979407;28;126229;-57
2020/12/27 00:24:06;;;;;;;3.00;1.42;;;;;;;11.26;48.61;100517.25;4960810;28;122278;-57
2020/12/27 00:26:32;;;;;;;2.28;1.38;;;;;;;11.25;48.95;100504.84;4966779;28;129146;-57
2020/12/27 00:28:59;;;;;;;2.17;1.40;;;;;;;11.27;48.79;100505.38;4960184;28;98464;-57
2020/12/27 00:31:25;;;;;;;2.30;1.50;;;;;;;11.25;48.58;100507.56;4958028;28;99763;-57
2020/12/27 00:33:51;;;;;;;2.13;1.30;;;;;;;11.24;48.76;100490.56;4960497;28;97709;-58
2020/12/27 00:36:20;;;;;;;3.03;1.50;;;;;;;11.20;49.10;100483.25;4959415;28;98998;-58
2020/12/27 00:38:47;;;;;;;2.15;1.55;;;;;;;11.21;48.81;100474.91;4959363;28;127332;-57
2020/12/27 00:41:22;;;;;;;2.15;1.45;;;;;;;11.21;48.90;100466.00;4958578;28;98355;-57
2020/12/27 00:43:49;;;;;;;2.25;1.30;;;;;;;11.22;48.56;100465.72;4957790;28;97792;-57
2020/12/27 00:46:15;;;;;;;2.50;1.70;;;;;;;11.20;48.85;100454.41;4967156;28;98090;-57
2020/12/27 00:48:41;;;;;;;2.25;1.80;;;;;;;11.20;49.32;100446.31;4979129;28;125376;-58
2020/12/27 00:51:07;;;;;;;2.72;1.38;;;;;;;11.20;48.61;100450.88;4979522;28;118321;-57
2020/12/27 00:53:34;;;;;;;1.92;1.33;;;;;;;11.19;48.48;100450.06;4977004;28;97949;-58
2020/12/27 00:56:00;;;;;;;2.28;1.40;;;;;;;11.20;48.92;100457.09;4959492;28;110564;-58
2020/12/27 00:58:26;;;;;;;2.35;1.55;;;;;;;11.18;49.49;100445.75;4958752;28;122698;-57
2020/12/27 01:00:52;;;;;;;2.47;1.45;;;;;;;11.17;48.96;100441.44;4959361;28;116631;-57
2020/12/27 01:03:18;;;;;;;2.88;1.50;;;;;;;11.19;48.93;100438.47;4958710;28;110418;-57
2020/12/27 01:05:45;;;;;;;2.50;1.67;;;;;;;11.19;49.02;100436.56;4958681;28;127309;-58
2020/12/27 01:08:11;;;;;;;3.47;1.70;;;;;;;11.19;49.34;100436.56;4959648;28;98629;-58
2020/12/27 01:10:37;;;;;;;2.72;1.70;;;;;;;11.15;49.04;100424.72;4959216;28;102079;-57
2020/12/27 01:13:03;;;;;;;2.60;1.70;;;;;;;11.16;48.64;100420.94;4958958;28;122794;-58
2020/12/27 01:15:29;;;;;;;3.17;1.60;;;;;;;11.13;49.36;100402.59;4960023;28;99014;-58
2020/12/27 01:17:55;;;;;;;2.42;1.55;;;;;;;11.15;49.41;100396.94;4960059;28;98279;-57
2020/12/27 01:20:21;;;;;;;2.22;1.33;;;;;;;11.12;48.83;100395.59;4958849;28;113878;-57
2020/12/27 01:22:47;;;;;;;2.50;1.58;;;;;;;11.10;48.99;100376.16;4971339;28;102555;-58
2020/12/27 01:25:13;;;;;;;3.05;1.65;;;;;;;11.11;49.30;100376.97;4977945;28;128747;-57
2020/12/27 01:27:39;;;;;;;2.38;1.67;;;;;;;11.08;48.84;100378.31;4944056;28;98134;-57
2020/12/27 01:30:05;;;;;;;2.80;1.80;;;;;;;11.10;48.91;100370.78;4958306;28;128066;-57
2020/12/27 01:32:31;;;;;;;2.70;1.70;;;;;;;11.10;49.42;100365.38;4958385;28;121714;-58
2020/12/27 01:34:57;;;;;;;2.40;1.67;;;;;;;11.10;49.32;100367.28;4958951;28;98290;-57
2020/12/27 01:37:24;;;;;;;2.97;1.90;;;;;;;11.07;49.25;100350.53;4957189;28;100266;-58
2020/12/27 01:39:50;;;;;;;2.25;1.42;;;;;;;11.06;49.40;100335.44;4959380;28;106092;-57
2020/12/27 01:42:16;;;;;;;2.05;1.60;;;;;;;11.07;49.34;100337.06;4959236;28;104857;-57
2020/12/27 01:44:42;;;;;;;2.33;1.60;;;;;;;11.07;49.52;100333.53;4962405;28;98161;-57
2020/12/27 01:47:20;;;;;;;2.63;1.35;;;;;;;11.03;49.52;100321.69;4961448;28;129395;-57
2020/12/27 01:49:46;;;;;;;2.63;1.38;;;;;;;11.04;48.95;100323.28;4962486;28;98276;-57
2020/12/27 01:52:12;;;;;;;2.00;1.27;;;;;;;11.04;49.39;100315.22;4963621;28;121608;-58
2020/12/27 01:54:39;;;;;;;2.53;1.30;;;;;;;11.04;49.52;100315.22;4981325;28;128019;-57
2020/12/27 01:57:12;;;;;;;2.38;1.48;;;;;;;11.02;49.28;100310.09;4980934;28;128359;-58
2020/12/27 01:59:38;;;;;;;1.80;1.20;;;;;;;11.04;49.49;100302.56;4979952;28;98018;-58
2020/12/27 02:02:05;;;;;;;2.63;1.38;;;;;;;11.02;49.23;100303.91;4982233;28;100421;-57
2020/12/27 02:04:31;;;;;;;2.20;1.40;;;;;;;11.02;49.43;100307.41;4980964;28;98097;-57
2020/12/27 02:06:58;;;;;;;2.47;1.50;;;;;;;11.02;49.10;100299.31;4981543;28;127015;-58
2020/12/27 02:09:24;;;;;;;2.55;1.27;;;;;;;11.04;49.12;100288.22;4979378;28;128066;-57
2020/12/27 02:12:07;;;;;;;2.72;1.38;;;;;;;10.97;49.09;100269.66;4980691;28;122155;-57
2020/12/27 02:14:34;;;;;;;2.05;1.50;;;;;;;10.99;48.85;100261.28;4963314;28;98564;-57
2020/12/27 02:17:02;;;;;;;3.28;1.50;;;;;;;11.00;48.88;100235.91;4944213;28;99263;-57
2020/12/27 02:19:28;;;;;;;2.22;1.45;;;;;;;10.99;49.63;100240.50;4977025;28;98067;-58
2020/12/27 02:21:54;;;;;;;2.78;1.38;;;;;;;11.00;49.22;100249.41;4981109;28;121389;-57
2020/12/27 02:24:20;;;;;;;2.47;1.50;;;;;;;11.01;49.15;100243.75;4981718;28;98672;-58
2020/12/27 02:27:00;;;;;;;2.70;1.40;;;;;;;10.97;49.48;100231.09;4981483;28;127932;-57
2020/12/27 02:29:27;;;;;;;1.90;1.50;;;;;;;10.98;48.92;100221.91;4982003;28;97868;-58
2020/12/27 02:31:56;;;;;;;2.47;1.45;;;;;;;10.96;49.01;100218.69;4981269;28;109259;-57
2020/12/27 02:34:23;;;;;;;2.13;1.45;;;;;;;10.97;49.43;100215.72;4978424;28;128993;-58
2020/12/27 02:36:49;;;;;;;2.55;1.55;;;;;;;10.95;49.15;100209.78;4982068;28;112036;-58
2020/12/27 02:39:16;;;;;;;2.55;1.50;;;;;;;10.94;49.22;100202.78;4982021;28;117231;-58
2020/12/27 02:41:42;;;;;;;2.70;1.58;;;;;;;10.96;49.02;100197.09;4980499;28;111763;-58
2020/12/27 02:44:09;;;;;;;3.38;1.45;;;;;;;10.95;48.76;100188.22;4962411;28;128243;-57
2020/12/27 02:46:35;;;;;;;2.28;1.20;;;;;;;10.95;49.19;100184.72;4962581;28;112587;-58
2020/12/27 02:49:01;;;;;;;2.20;1.50;;;;;;;10.94;48.81;100178.50;4959431;28;118164;-57
2020/12/27 02:51:28;;;;;;;2.47;1.55;;;;;;;10.93;48.81;100179.59;4960532;28;111837;-58
2020/12/27 02:53:54;;;;;;;1.88;1.35;;;;;;;10.93;49.00;100176.91;4942426;28;126239;-57
2020/12/27 02:56:22;;;;;;;2.08;1.10;;;;;;;10.93;49.14;100176.09;4961543;28;98741;-58
2020/12/27 02:58:49;;;;;;;1.77;1.27;;;;;;;10.91;48.78;100173.66;4961490;28;98734;-57
2020/12/27 03:01:15;;;;;;;2.30;1.45;;;;;;;10.92;49.09;100169.88;4961431;28;106021;-57
2020/12/27 03:03:41;;;;;;;2.53;1.30;;;;;;;10.93;49.24;100170.72;4959751;28;98490;-57
2020/12/27 03:06:07;;;;;;;2.00;1.10;;;;;;;10.93;48.76;100159.91;4961401;28;98435;-57
2020/12/27 03:08:33;;;;;;;2.58;1.30;;;;;;;10.93;49.28;100160.72;4960679;28;98393;-57
2020/12/27 03:10:59;;;;;;;2.00;1.10;;;;;;;10.91;49.14;100151.28;4959702;28;122265;-58
2020/12/27 03:13:27;;;;;;;2.35;1.25;;;;;;;10.93;49.30;100147.25;4966284;28;127734;-57
2020/12/27 03:15:54;;;;;;;2.17;1.27;;;;;;;10.90;49.12;100139.69;4981383;28;98471;-57
2020/12/27 03:18:21;;;;;;;1.73;1.20;;;;;;;10.91;49.08;100132.41;4979530;27;97857;-58
2020/12/27 03:20:48;;;;;;;1.80;1.13;;;;;;;10.89;49.41;100132.69;4980727;28;97945;-57
2020/12/27 03:23:15;;;;;;;1.95;1.35;;;;;;;10.89;48.83;100131.91;4981119;27;98895;-57
2020/12/27 03:25:42;;;;;;;2.38;1.25;;;;;;;10.89;49.46;100126.50;4980778;28;98425;-57
2020/12/27 03:28:08;;;;;;;1.77;1.00;;;;;;;10.87;48.83;100126.75;4981201;28;98110;-57
2020/12/27 03:30:34;;;;;;;2.90;1.50;;;;;;;10.87;48.98;100117.88;4980997;28;110816;-57
2020/12/27 03:33:00;;;;;;;2.25;1.42;;;;;;;10.86;48.78;100113.56;4981181;28;98608;-57
2020/12/27 03:35:26;;;;;;;1.83;1.20;;;;;;;10.84;49.29;100108.44;4979933;28;127959;-58
2020/12/27 03:37:52;;;;;;;3.25;1.48;;;;;;;10.85;49.45;100099.28;4980178;28;127677;-58
2020/12/27 03:40:18;;;;;;;1.83;1.15;;;;;;;10.84;48.74;100092.25;4980554;28;114213;-57
2020/12/27 03:42:44;;;;;;;2.72;1.55;;;;;;;10.82;48.68;100083.66;4963890;28;127171;-57
2020/12/27 03:45:10;;;;;;;3.22;1.80;;;;;;;10.82;49.21;100084.47;4961079;28;101590;-57
2020/12/27 03:47:36;;;;;;;3.00;1.85;;;;;;;10.79;49.33;100078.81;4959884;28;116056;-57
2020/12/27 03:50:04;;;;;;;4.07;1.80;;;;;;;10.78;48.56;100069.13;4959926;28;122534;-57
2020/12/27 03:52:30;;;;;;;3.60;2.00;;;;;;;10.75;48.55;100070.47;4960842;28;98452;-57
2020/12/27 03:54:56;;;;;;;2.80;1.85;;;;;;;10.74;48.63;100062.69;4941420;28;128288;-57
2020/12/27 03:57:22;;;;;;;2.97;1.85;;;;;;;10.73;48.58;100056.47;4959249;28;126292;-57
2020/12/27 03:59:49;;;;;;;2.97;1.90;;;;;;;10.74;49.11;100047.31;4960121;28;121252;-57
2020/12/27 04:02:15;;;;;;;3.40;1.77;;;;;;;10.71;49.16;100049.75;4971062;28;98245;-57
2020/12/27 04:04:41;;;;;;;2.80;1.88;;;;;;;10.72;48.64;100041.38;4980112;28;102445;-58
2020/12/27 04:07:07;;;;;;;3.42;1.80;;;;;;;10.69;48.75;100039.25;4979347;28;117279;-57
2020/12/27 04:09:33;;;;;;;2.80;2.08;;;;;;;10.69;48.13;100025.78;4974856;28;97763;-58
2020/12/27 04:11:59;;;;;;;2.85;1.88;;;;;;;10.67;48.10;100025.22;4958976;28;128028;-57
2020/12/27 04:14:26;;;;;;;2.92;1.90;;;;;;;10.65;48.34;100022.03;4958582;28;108037;-58
2020/12/27 04:16:52;;;;;;;2.47;1.88;;;;;;;10.64;47.98;100017.69;4959600;28;115390;-58
2020/12/27 04:19:18;;;;;;;2.20;1.48;;;;;;;10.64;48.31;100019.59;4960278;28;97706;-58
2020/12/27 04:21:45;;;;;;;2.33;1.77;;;;;;;10.61;48.10;100007.50;4958693;28;98908;-58
2020/12/27 04:24:11;;;;;;;3.20;2.00;;;;;;;10.62;48.43;100002.91;4980786;28;98392;-57
2020/12/27 04:26:37;;;;;;;4.25;1.88;;;;;;;10.60;48.21;100003.16;4980145;28;97977;-58
2020/12/27 04:29:03;;;;;;;3.35;1.60;;;;;;;10.60;48.03;100005.06;4960936;28;97889;-57
2020/12/27 04:31:29;;;;;;;2.47;1.60;;;;;;;10.60;48.47;99997.78;4960953;28;116854;-57
2020/12/27 04:33:56;;;;;;;2.75;1.77;;;;;;;10.59;48.27;99988.09;4980158;28;113526;-57
2020/12/27 04:36:23;;;;;;;3.08;2.03;;;;;;;10.56;48.41;99994.03;4980128;28;98619;-57
2020/12/27 04:38:49;;;;;;;2.60;1.70;;;;;;;10.58;48.09;99997.25;4964987;28;101656;-57
2020/12/27 04:41:16;;;;;;;2.67;1.92;;;;;;;10.60;47.78;99996.97;4962662;28;126257;-57
2020/12/27 04:43:44;;;;;;;2.25;1.50;;;;;;;10.58;48.39;99997.25;4959891;28;98332;-57
2020/12/27 04:46:11;;;;;;;2.90;1.58;;;;;;;10.63;47.97;100002.63;4941999;28;110138;-57
2020/12/27 04:48:42;;;;;;;2.95;1.73;;;;;;;10.64;48.46;99995.31;4941921;28;106970;-57
2020/12/27 04:51:09;;;;;;;2.47;1.55;;;;;;;10.69;48.24;100008.78;4940421;28;109067;-58
2020/12/27 04:53:36;;;;;;;3.03;1.70;;;;;;;10.73;48.04;100005.25;4959193;28;115423;-58
2020/12/27 04:56:04;;;;;;;2.92;1.60;;;;;;;10.74;48.19;100001.47;4958625;28;118764;-57
2020/12/27 04:58:30;;;;;;;2.55;1.63;;;;;;;10.77;47.95;100006.31;4960105;28;97996;-57
2020/12/27 05:00:57;;;;;;;3.10;1.52;;;;;;;10.78;47.96;100005.22;4959916;28;98511;-58
2020/12/27 05:03:23;;;;;;;2.42;1.65;;;;;;;10.78;47.73;99996.34;4958749;28;117823;-58
2020/12/27 05:05:50;;;;;;;2.40;1.48;;;;;;;10.79;47.86;99996.03;4962819;28;127530;-58
2020/12/27 05:08:16;;;;;;;2.88;1.50;;;;;;;10.76;47.67;99985.00;4961292;28;97851;-58
2020/12/27 05:10:43;;;;;;;2.95;1.35;;;;;;;10.78;47.69;99972.06;4978850;28;126184;-59
2020/12/27 05:13:13;;;;;;;2.47;1.55;;;;;;;10.75;47.48;99965.34;4959192;28;98687;-58
2020/12/27 05:15:40;;;;;;;3.03;1.65;;;;;;;10.77;47.83;99962.38;4959152;28;98774;-58
2020/12/27 05:18:07;;;;;;;2.63;1.10;;;;;;;10.79;47.40;99954.78;4959365;28;112556;-57
2020/12/27 05:20:36;;;;;;;3.17;1.58;;;;;;;10.75;47.94;99943.75;4963474;28;111418;-57
2020/12/27 05:23:07;;;;;;;2.28;1.40;;;;;;;10.76;48.08;99939.19;4962030;28;117002;-57
2020/12/27 05:25:34;;;;;;;3.50;1.40;;;;;;;10.77;47.68;99930.03;4961776;28;107385;-57
2020/12/27 05:28:02;;;;;;;2.25;1.15;;;;;;;10.76;47.90;99914.91;4962462;28;97837;-58
2020/12/27 05:30:28;;;;;;;2.20;1.05;;;;;;;10.77;47.78;99913.84;4962283;28;117661;-58
2020/12/27 05:32:55;;;;;;;3.17;1.38;;;;;;;10.76;47.50;99910.31;4961792;28;127347;-57
2020/12/27 05:35:24;;;;;;;2.03;1.08;;;;;;;10.74;47.83;99906.31;4962234;28;98314;-58
2020/12/27 05:37:50;;;;;;;1.83;1.30;;;;;;;10.74;47.89;99890.16;4962267;28;101211;-57
2020/12/27 05:40:17;;;;;;;2.17;1.40;;;;;;;10.71;47.09;99888.81;4962939;28;99216;-57
2020/12/27 05:42:44;;;;;;;3.55;1.20;;;;;;;10.71;46.83;99877.22;4961539;28;119162;-57
2020/12/27 05:45:18;;;;;;;2.97;1.25;;;;;;;10.68;47.00;99881.28;4962167;28;112184;-57
2020/12/27 05:47:45;;;;;;;2.13;1.20;;;;;;;10.66;46.38;99888.84;4962206;28;110160;-56
2020/12/27 05:50:13;;;;;;;2.63;1.30;;;;;;;10.66;47.08;99879.97;4963088;28;97804;-57
2020/12/27 05:52:58;;;;;;;1.80;1.00;;;;;;;10.63;46.81;99869.75;4943473;28;98652;-58
2020/12/27 05:55:24;;;;;;;2.67;1.30;;;;;;;10.60;45.80;99867.59;4944198;28;105995;-57
2020/12/27 05:57:54;;;;;;;1.70;1.30;;;;;;;10.54;46.25;99850.69;4943456;28;121532;-57
2020/12/27 06:00:24;;;;;;;2.60;1.60;;;;;;;10.55;45.47;99852.28;4963188;28;98254;-57
2020/12/27 06:02:57;;;;;;;2.28;1.25;;;;;;;10.52;45.52;99852.84;4962547;28;98440;-58
2020/12/27 06:05:50;;;;;;;2.60;1.30;;;;;;;10.54;45.78;99842.59;4961811;28;98172;-58
2020/12/27 06:08:29;;;;;;;2.22;1.20;;;;;;;10.46;45.45;99827.03;4946306;28;97804;-57
2020/12/27 06:11:23;;;;;;;3.22;1.30;;;;;;;10.47;45.34;99824.03;4961978;28;99477;-57
2020/12/27 06:14:14;;;;;;;3.13;1.35;;;;;;;10.46;45.76;99825.13;4960305;28;99826;-59
2020/12/27 06:16:49;;;;;;;2.60;1.10;;;;;;;10.47;46.03;99815.16;4960437;28;97949;-57
2020/12/27 06:19:24;;;;;;;1.88;1.30;;;;;;;10.46;45.71;99817.06;4962572;28;97773;-57
2020/12/27 06:22:10;;;;;;;2.50;1.35;;;;;;;10.48;45.90;99814.06;4962774;28;98469;-57
2020/12/27 06:24:39;;;;;;;2.25;1.30;;;;;;;10.50;45.90;99828.06;4959934;28;110214;-58
2020/12/27 06:27:06;;;;;;;2.40;1.20;;;;;;;10.48;45.45;99824.84;4962813;28;98649;-57
2020/12/27 06:29:49;;;;;;;2.03;1.10;;;;;;;10.48;46.28;99822.16;4978611;27;100433;-58
2020/12/27 06:32:16;;;;;;;;;;;;;;;10.43;46.82;99823.00;4964650;28;98298;-57
2020/12/27 06:34:43;;;;;;;2.38;1.20;;;;;;;10.46;46.16;99816.25;4980079;28;98369;-57
2020/12/27 06:37:09;;;;;;;2.45;1.20;;;;;;;10.47;46.10;99810.56;4963389;28;98328;-57
2020/12/27 06:39:35;;;;;;;2.33;1.17;;;;;;;10.47;45.98;99815.97;4980830;28;123148;-57
2020/12/27 06:42:14;;;;;;;2.10;1.33;;;;;;;10.45;46.34;99818.16;4980959;28;127637;-58
2020/12/27 06:44:41;;;;;;;2.15;1.20;;;;;;;10.47;45.69;99817.84;4981462;28;98595;-57
2020/12/27 06:47:09;;;;;;;1.83;0.88;;;;;;;10.48;46.52;99836.44;4981574;28;98106;-58
2020/12/27 06:49:35;;;;;;;2.00;1.10;;;;;;;10.46;46.31;99824.34;4979878;28;98523;-57
2020/12/27 06:52:24;;;;;;;1.88;1.00;;;;;;;10.46;45.95;99822.44;4962685;28;121708;-58
2020/12/27 06:54:54;;;;;;;1.95;1.08;;;;;;;10.47;46.69;99815.16;4962952;28;98841;-57
2020/12/27 06:57:45;;;;;;;1.90;1.02;;;;;;;10.40;45.10;99817.38;4965464;28;113732;-58
2020/12/27 07:00:30;;;;;;;2.28;1.10;;;;;;;10.38;45.05;99817.66;4961828;28;97900;-58
2020/12/27 07:03:10;;;;;;;2.15;0.93;;;;;;;10.41;45.64;99809.00;4962447;28;98808;-58
2020/12/27 07:05:39;;;;;;;1.70;1.02;;;;;;;10.44;45.45;99805.75;4961388;28;98727;-57
2020/12/27 07:08:08;;;;;;;2.25;1.10;;;;;;;10.48;45.74;99800.59;4960980;28;97999;-57
2020/12/27 07:10:49;;;;;;;2.65;0.90;;;;;;;10.46;45.66;99787.41;4961545;28;98103;-58
2020/12/27 07:13:16;;;;;;;1.92;0.90;;;;;;;10.49;45.14;99791.41;4943405;28;107266;-58
2020/12/27 07:15:53;;;;;;;1.75;0.98;;;;;;;10.46;45.77;99783.94;4959561;28;98394;-57
2020/12/27 07:18:26;;;;;;;2.22;1.08;;;;;;;10.43;45.63;99769.13;4961274;28;98084;-58
2020/12/27 07:20:57;;;;;;;1.98;1.05;;;;;;;10.47;45.44;99766.66;4960756;28;114718;-58
2020/12/27 07:23:31;;;;;;;1.70;0.77;;;;;;;10.52;45.57;99758.53;4960609;28;99555;-58
2020/12/27 07:25:59;;;;;;;2.03;1.02;;;;;;;10.48;44.97;99744.00;4944041;28;98963;-58
2020/12/27 07:28:25;;;;;;;2.17;1.00;;;;;;;10.49;45.65;99753.69;4960698;28;98670;-58
2020/12/27 07:31:01;;;;;;;2.88;0.90;;;;;;;10.52;44.91;99742.34;4961207;28;97828;-58
2020/12/27 07:33:34;;;;;;;2.60;1.00;;;;;;;10.55;44.84;99739.09;4960822;28;98197;-58
2020/12/27 07:36:18;;;;;;;1.63;0.80;;;;;;;10.54;44.61;99737.50;4968535;28;98900;-58
2020/12/27 07:39:05;;;;;;;2.28;0.90;;;;;;;10.56;45.58;99725.31;4961817;28;126931;-58
2020/12/27 07:41:42;;;;;;;2.13;0.90;;;;;;;10.58;44.39;99725.06;4963117;28;97921;-58
2020/12/27 07:44:12;;;;;;;2.05;1.00;;;;;;;10.57;44.10;99700.00;4960547;28;99099;-59
2020/12/27 07:46:38;;;;;;;2.58;1.00;;;;;;;10.63;43.92;99702.63;4961286;28;104870;-58
2020/12/27 07:49:08;;;;;;;2.28;0.80;;;;;;;10.62;44.53;99698.34;4960697;28;98164;-59
2020/12/27 07:51:34;;;;;;;1.50;0.90;;;;;;;10.69;44.38;99698.78;4976553;28;97912;-58
2020/12/27 07:54:02;;;;;;;1.85;0.60;;;;;;;10.72;45.01;99682.03;4980915;28;98841;-58
2020/12/27 07:56:29;;;;;;;1.60;0.80;;;;;;;10.77;45.37;99669.31;4981171;28;98513;-58
2020/12/27 07:58:56;;;;;;;1.63;0.70;;;;;;;10.85;45.51;99665.19;4980311;28;98424;-58
2020/12/27 08:01:24;;;;;;;1.80;0.85;;;;;;;10.90;45.13;99659.72;4961892;28;97942;-58
2020/12/27 08:03:52;;;;;;;1.90;0.80;;;;;;;10.95;45.23;99654.28;4977988;28;98511;-58
2020/12/27 08:06:18;;;;;;;1.35;0.65;;;;;;;11.03;45.42;99642.03;4977320;28;108827;-58
2020/12/27 08:08:45;;;;;;;1.67;0.82;;;;;;;11.09;45.37;99648.97;4977252;28;114649;-57
2020/12/27 08:11:20;;;;;;;1.80;0.65;;;;;;;11.12;45.75;99636.78;4978685;28;97988;-58
2020/12/27 08:14:06;;;;;;;1.63;0.82;;;;;;;11.16;46.08;99627.84;4978017;28;98336;-58
2020/12/27 08:16:32;;;;;;;1.67;0.70;;;;;;;11.25;45.90;99628.00;4961195;28;104479;-58
2020/12/27 08:19:08;;;;;;;1.98;0.73;;;;;;;11.28;45.95;99620.13;4968405;28;98582;-58
2020/12/27 08:21:35;;;;;;;1.35;0.70;;;;;;;11.32;45.90;99606.84;4977636;28;97913;-58
2020/12/27 08:24:07;;;;;;;1.48;0.68;;;;;;;11.40;45.56;99595.38;4977846;28;98361;-58
2020/12/27 08:26:36;;;;;;;1.95;0.70;;;;;;;11.45;45.90;99592.59;4976188;28;98785;-58
2020/12/27 08:29:20;;;;;;;1.30;0.70;;;;;;;11.53;45.60;99578.44;4977563;28;119646;-58
2020/12/27 08:32:04;;;;;;;1.35;0.40;;;;;;;11.63;46.36;99557.75;4960404;28;97694;-58
2020/12/27 08:34:30;;;;;;;1.35;0.70;;;;;;;11.66;44.98;99557.97;4977246;28;117748;-58
2020/12/27 08:36:58;;;;;;;1.52;0.68;;;;;;;11.77;44.83;99559.41;4976809;28;128249;-58
2020/12/27 08:39:40;;;;;;;1.15;0.55;;;;;;;11.84;45.51;99577.16;4977291;28;101252;-58
2020/12/27 08:42:32;;;;;;;1.30;0.60;;;;;;;11.93;45.61;99559.97;4943055;28;106660;-59
2020/12/27 08:45:05;;;;;;;1.98;0.60;;;;;;;11.99;45.51;99560.69;4958904;28;120723;-58
2020/12/27 08:47:46;;;;;;;1.45;0.63;;;;;;;11.96;44.87;99553.97;4977767;28;97858;-58
2020/12/27 08:50:36;;;;;;;1.45;0.57;;;;;;;11.97;45.59;99542.06;4943567;28;98143;-58
2020/12/27 08:53:02;;;;;;;1.38;0.63;;;;;;;12.01;45.62;99531.47;4961609;28;97913;-58
2020/12/27 08:55:29;;;;;;;1.25;0.50;;;;;;;12.06;45.85;99536.78;4962186;28;99002;-58
2020/12/27 08:57:56;;;;;;;1.65;0.80;;;;;;;12.07;45.39;99535.69;4980383;27;99035;-58
2020/12/27 09:00:31;;;;;;;0.98;0.50;;;;;;;12.06;45.18;99531.38;4961763;28;97920;-58
2020/12/27 09:02:58;;;;;;;1.90;0.50;;;;;;;12.13;45.89;99523.66;4961984;28;98117;-58
2020/12/27 09:05:31;;;;;;;1.50;0.70;;;;;;;12.18;46.11;99528.16;4962895;28;109997;-58
2020/12/27 09:07:57;;;;;;;1.60;0.60;;;;;;;12.26;46.27;99530.16;4959892;28;121134;-58
2020/12/27 09:10:27;;;;;;;1.73;0.68;;;;;;;12.28;45.61;99520.66;4959770;28;126412;-58
2020/12/27 09:13:14;;;;;;;1.58;0.80;;;;;;;12.42;46.06;99526.09;4959189;28;110903;-57
2020/12/27 09:15:47;;;;;;;1.00;0.45;;;;;;;12.51;45.88;99529.66;4941236;28;119976;-58
2020/12/27 09:18:16;;;;;;;1.95;0.60;;;;;;;12.65;46.13;99518.81;4940535;28;113531;-58
2020/12/27 09:20:44;;;;;;;1.08;0.43;;;;;;;12.71;45.18;99516.81;4960033;28;98075;-58
2020/12/27 09:23:17;;;;;;;0.90;0.40;;;;;;;12.78;45.60;99517.19;4960448;28;97809;-58
2020/12/27 09:25:44;;;;;;;2.00;0.60;;;;;;;12.94;45.86;99512.25;4960474;28;98470;-58
2020/12/27 09:28:14;;;;;;;1.90;0.60;;;;;;;12.95;45.50;99506.53;4975471;28;119056;-58
2020/12/27 09:30:41;;;;;;;1.40;0.60;;;;;;;12.94;45.64;99504.13;4979939;28;97871;-58
2020/12/27 09:33:07;;;;;;;2.10;0.60;;;;;;;12.86;44.40;99511.06;4962044;28;98030;-58
2020/12/27 09:35:33;;;;;;;1.50;0.52;;;;;;;12.89;44.53;99507.75;4961090;28;127919;-58
2020/12/27 09:37:59;;;;;;;1.05;0.40;;;;;;;12.93;44.54;99494.41;4979974;28;128247;-58
2020/12/27 09:40:25;;;;;;;1.52;0.60;;;;;;;12.91;44.83;99494.72;4979290;28;126705;-58
2020/12/27 09:43:04;;;;;;;1.50;0.60;;;;;;;12.91;44.49;99499.31;4977847;28;109980;-58
2020/12/27 09:45:31;;;;;;;2.78;0.65;;;;;;;12.89;43.86;99488.00;4980304;28;98187;-58
2020/12/27 09:48:01;;;;;;;1.63;0.70;;;;;;;12.94;44.93;99482.50;4977371;27;99697;-58
2020/12/27 09:50:34;;;;;;;1.45;0.63;;;;;;;12.99;45.23;99482.38;4961103;28;97821;-58
2020/12/27 09:53:00;;;;;;;;;;;;;;;13.06;45.59;99481.94;4973061;27;97886;-58
2020/12/27 09:55:26;;;;;;;1.42;0.73;;;;;;;12.99;44.93;99477.75;4971265;28;98088;-58
2020/12/27 09:57:52;;;;;;;1.65;0.60;;;;;;;12.99;45.23;99463.44;4959934;28;98999;-58
2020/12/27 10:00:18;;;;;;;1.98;0.52;;;;;;;13.01;45.58;99453.91;4961259;28;97946;-58
2020/12/27 10:02:44;;;;;;;1.70;0.55;;;;;;;13.04;46.10;99441.66;4959593;28;97870;-58
2020/12/27 10:05:11;;;;;;;1.15;0.52;;;;;;;13.07;46.57;99432.13;4958953;28;99434;-58
2020/12/27 10:07:38;;;;;;;1.95;0.68;;;;;;;13.08;46.10;99429.13;4960105;27;98814;-58
2020/12/27 10:10:06;;;;;;;1.88;0.70;;;;;;;13.09;46.09;99414.50;4969364;28;98488;-58
2020/12/27 10:12:32;;;;;;;1.42;0.70;;;;;;;13.18;46.78;99404.50;4959969;28;97928;-58
2020/12/27 10:14:58;;;;;;;2.38;0.80;;;;;;;13.20;46.57;99386.09;4959984;28;98535;-58
2020/12/27 10:17:24;;;;;;;1.17;0.57;;;;;;;13.21;46.53;99395.00;4960253;28;98493;-58
2020/12/27 10:19:50;;;;;;;1.95;0.70;;;;;;;13.22;45.92;99378.44;4969876;28;127614;-58
2020/12/27 10:22:17;;;;;;;1.48;0.57;;;;;;;13.27;46.17;99383.72;4967853;28;115762;-58
2020/12/27 10:24:43;;;;;;;1.30;0.50;;;;;;;13.30;46.46;99381.53;4968137;27;98829;-58
2020/12/27 10:27:10;;;;;;;2.15;0.60;;;;;;;13.30;46.30;99387.75;4942217;28;98774;-58
2020/12/27 10:29:36;;;;;;;1.40;0.50;;;;;;;13.34;45.75;99377.88;4970568;28;98401;-58
2020/12/27 10:32:04;;;;;;;1.40;0.60;;;;;;;13.33;46.04;99381.72;4975586;28;97992;-57
2020/12/27 10:34:30;;;;;;;2.00;0.65;;;;;;;13.36;45.40;99369.44;4964575;28;98488;-58
2020/12/27 10:36:58;;;;;;;1.65;0.43;;;;;;;13.27;44.83;99351.25;4948819;28;98505;-58
2020/12/27 10:39:24;;;;;;;1.02;0.40;;;;;;;13.25;44.51;99348.09;4961102;28;98615;-58
2020/12/27 10:41:51;;;;;;;1.15;0.50;;;;;;;13.30;45.30;99338.22;4960232;28;97746;-58
2020/12/27 10:44:18;;;;;;;1.48;0.50;;;;;;;13.31;45.86;99332.50;4941006;28;98446;-58
2020/12/27 10:46:44;;;;;;;1.00;0.55;;;;;;;13.29;46.14;99323.91;4954670;28;110303;-58
2020/12/27 10:49:11;;;;;;;1.63;0.60;;;;;;;13.29;45.94;99320.41;4960023;28;98247;-58
2020/12/27 10:51:38;;;;;;;1.83;0.80;;;;;;;13.24;45.84;99308.59;4949096;28;102902;-57
2020/12/27 10:54:05;;;;;;;1.45;0.70;;;;;;;13.24;45.46;99302.38;4962538;28;111229;-58
2020/12/27 10:56:31;;;;;;;1.80;0.98;;;;;;;13.24;45.45;99303.19;4958582;28;106003;-59
2020/12/27 10:58:57;;;;;;;1.73;0.73;;;;;;;13.23;44.53;99296.16;4960122;28;98240;-58
2020/12/27 11:01:23;;;;;;;2.08;0.90;;;;;;;13.26;44.64;99281.22;4959469;28;98127;-58
2020/12/27 11:03:50;;;;;;;1.73;1.00;;;;;;;13.32;44.76;99273.75;4940997;28;105234;-58
2020/12/27 11:06:16;;;;;;;3.20;0.80;;;;;;;13.35;45.12;99271.22;4957455;28;127247;-58
2020/12/27 11:08:42;;;;;;;1.95;0.80;;;;;;;13.37;44.90;99258.19;4968834;28;126830;-58
2020/12/27 11:11:08;;;;;;;1.63;0.73;;;;;;;13.41;45.64;99277.28;4977250;28;101049;-59
2020/12/27 11:13:34;;;;;;;1.50;0.80;;;;;;;13.41;44.78;99245.63;4979303;28;98841;-58
2020/12/27 11:16:00;;;;;;;1.52;0.60;;;;;;;13.45;44.52;99246.56;4976163;27;104868;-58
2020/12/27 11:18:26;;;;;;;1.25;0.70;;;;;;;13.38;44.08;99243.53;4958498;28;98597;-58
2020/12/27 11:20:52;;;;;;;1.15;0.40;;;;;;;13.38;44.34;99223.78;4957683;28;116852;-58
2020/12/27 11:23:18;;;;;;;1.60;0.45;;;;;;;13.38;43.71;99226.50;4958020;28;98289;-58
2020/12/27 11:25:44;;;;;;;1.42;0.60;;;;;;;13.36;43.67;99236.81;4957508;28;126593;-58
2020/12/27 11:28:10;;;;;;;1.20;0.43;;;;;;;13.27;42.33;99229.50;4958340;28;127742;-58
2020/12/27 11:30:36;;;;;;;1.30;0.38;;;;;;;13.23;42.13;99197.97;4966992;28;124439;-58
2020/12/27 11:33:02;;;;;;;1.60;0.50;;;;;;;13.17;41.49;99202.72;4964448;28;128772;-58
2020/12/27 11:35:28;;;;;;;1.30;0.57;;;;;;;13.12;40.63;99202.03;4968716;28;127313;-59